createdAt,value
2019-01-13T00:00:03.152Z,4.88
2019-01-13T00:05:03.127Z,4.88
2019-01-13T00:10:03.124Z,4.88
2019-01-13T00:15:03.138Z,4.88
2019-01-13T00:20:03.130Z,4.94
2019-01-13T00:25:03.134Z,4.94
2019-01-13T00:30:03.137Z,4.94
2019-01-13T00:35:03.186Z,4.94
2019-01-13T00:40:03.126Z,4.94
2019-01-13T00:45:03.130Z,4.94
2019-01-13T00:50:03.160Z,4.94
2019-01-13T00:55:03.157Z,4.88
2019-01-13T01:00:03.179Z,4.88
2019-01-13T01:05:03.143Z,4.88
2019-01-13T01:10:03.139Z,4.88
2019-01-13T01:15:03.139Z,4.88
2019-01-13T01:20:03.157Z,4.88
2019-01-13T01:25:03.146Z,4.88
2019-01-13T01:30:03.148Z,4.94
2019-01-13T01:35:03.208Z,5
2019-01-13T01:40:03.157Z,5.06
2019-01-13T01:45:03.145Z,5.13
2019-01-13T01:50:03.157Z,5.13
2019-01-13T01:55:03.153Z,5.13
2019-01-13T02:00:03.160Z,5.19
2019-01-13T02:05:03.155Z,5.13
2019-01-13T02:10:03.154Z,5.13
2019-01-13T02:15:03.166Z,5.13
2019-01-13T02:20:03.182Z,5.19
2019-01-13T02:25:03.158Z,5.19
2019-01-13T02:30:03.176Z,5.19
2019-01-13T02:35:03.182Z,5.19
2019-01-13T02:40:03.166Z,5.19
2019-01-13T02:45:03.175Z,5.19
2019-01-13T02:50:03.187Z,5.19
2019-01-13T02:55:03.196Z,5.25
2019-01-13T03:00:03.175Z,5.31
2019-01-13T03:05:03.205Z,5.31
2019-01-13T03:10:03.168Z,5.31
2019-01-13T03:15:03.185Z,5.38
2019-01-13T03:20:03.206Z,5.38
2019-01-13T03:25:03.175Z,5.38
2019-01-13T03:30:03.215Z,5.44
2019-01-13T03:35:03.197Z,5.44
2019-01-13T03:40:03.194Z,5.44
2019-01-13T03:45:03.189Z,5.38
2019-01-13T03:50:03.183Z,5.44
2019-01-13T03:55:03.202Z,5.44
2019-01-13T04:00:03.212Z,5.44
2019-01-13T04:05:03.187Z,5.44
2019-01-13T04:10:03.234Z,5.38
2019-01-13T04:15:03.216Z,5.38
2019-01-13T04:20:03.226Z,5.31
2019-01-13T04:25:03.211Z,5.31
2019-01-13T04:30:03.197Z,5.25
2019-01-13T04:35:03.229Z,5.31
2019-01-13T04:40:03.201Z,5.25
2019-01-13T04:45:03.211Z,5.25
2019-01-13T04:50:03.211Z,5.25
2019-01-13T04:55:03.215Z,5.25
2019-01-13T05:00:03.196Z,5.25
2019-01-13T05:05:03.210Z,5.25
2019-01-13T05:10:03.213Z,5.25
2019-01-13T05:15:03.215Z,5.25
2019-01-13T05:20:03.213Z,5.25
2019-01-13T05:25:03.210Z,5.31
2019-01-13T05:30:03.281Z,5.25
2019-01-13T05:35:03.215Z,5.25
2019-01-13T05:40:03.221Z,5.25
2019-01-13T05:45:03.219Z,5.31
2019-01-13T05:50:03.261Z,5.31
2019-01-13T05:55:03.217Z,5.31
2019-01-13T06:00:03.226Z,5.38
2019-01-13T06:05:03.218Z,5.31
2019-01-13T06:10:03.251Z,5.31
2019-01-13T06:15:03.217Z,5.38
2019-01-13T06:20:03.228Z,5.38
2019-01-13T06:25:03.228Z,5.38
2019-01-13T06:30:03.228Z,5.38
2019-01-13T06:35:03.228Z,5.38
2019-01-13T06:40:03.235Z,5.38
2019-01-13T06:45:03.243Z,5.44
2019-01-13T06:50:03.243Z,5.44
2019-01-13T06:55:03.291Z,5.44
2019-01-13T07:00:03.236Z,5.38
2019-01-13T07:05:03.239Z,5.38
2019-01-13T07:10:03.260Z,5.38
2019-01-13T07:15:03.240Z,5.38
2019-01-13T07:20:03.241Z,5.38
2019-01-13T07:25:03.244Z,5.38
2019-01-13T07:30:03.247Z,5.38
2019-01-13T07:35:03.253Z,5.38
2019-01-13T07:40:03.271Z,5.38
2019-01-13T07:45:03.271Z,5.38
2019-01-13T07:50:03.242Z,5.44
2019-01-13T07:55:03.249Z,5.44
2019-01-13T08:00:03.272Z,5.38
2019-01-13T08:05:03.255Z,5.38
2019-01-13T08:10:03.257Z,5.44
2019-01-13T08:15:03.250Z,5.44
2019-01-13T08:20:03.255Z,5.44
2019-01-13T08:25:03.260Z,5.5
2019-01-13T08:30:03.261Z,5.5
2019-01-13T08:35:03.265Z,5.5
2019-01-13T08:40:03.265Z,5.5
2019-01-13T08:45:03.259Z,5.56
2019-01-13T08:50:03.269Z,5.56
2019-01-13T08:55:03.296Z,5.63
2019-01-13T09:00:03.288Z,5.56
2019-01-13T09:05:03.272Z,5.5
2019-01-13T09:10:03.290Z,5.44
2019-01-13T09:15:03.293Z,5.38
2019-01-13T09:20:03.283Z,5.38
2019-01-13T09:25:03.276Z,5.38
2019-01-13T09:30:03.284Z,5.31
2019-01-13T09:35:03.280Z,5.38
2019-01-13T09:40:03.272Z,5.38
2019-01-13T09:45:03.289Z,5.44
2019-01-13T09:50:03.278Z,5.5
2019-01-13T09:55:03.274Z,5.5
2019-01-13T10:00:03.288Z,5.5
2019-01-13T10:05:03.293Z,5.56
2019-01-13T10:10:03.290Z,5.63
2019-01-13T10:15:03.293Z,5.69
2019-01-13T10:20:03.300Z,5.75
2019-01-13T10:25:03.310Z,5.88
2019-01-13T10:30:03.295Z,5.88
2019-01-13T10:35:03.353Z,5.88
2019-01-13T10:40:03.303Z,5.81
2019-01-13T10:45:03.295Z,5.75
2019-01-13T10:50:03.295Z,5.75
2019-01-13T10:55:03.304Z,5.75
2019-01-13T11:00:03.304Z,5.75
2019-01-13T11:05:03.299Z,5.81
2019-01-13T11:10:03.326Z,5.75
2019-01-13T11:15:03.304Z,5.75
2019-01-13T11:20:03.301Z,5.75
2019-01-13T11:25:03.326Z,5.75
2019-01-13T11:30:03.310Z,5.75
2019-01-13T11:35:03.306Z,5.69
2019-01-13T11:40:03.331Z,5.63
2019-01-13T11:45:03.314Z,5.56
2019-01-13T11:50:03.313Z,5.56
2019-01-13T11:55:03.368Z,5.56
2019-01-13T12:00:03.332Z,5.63
2019-01-13T12:05:03.325Z,5.63
2019-01-13T12:10:03.338Z,5.75
2019-01-13T12:15:03.325Z,5.81
2019-01-13T12:20:03.326Z,5.88
2019-01-13T12:25:03.361Z,5.88
2019-01-13T12:30:03.344Z,5.88
2019-01-13T12:35:03.327Z,5.94
2019-01-13T12:40:03.342Z,5.94
2019-01-13T12:45:03.336Z,6
2019-01-13T12:50:03.334Z,6
2019-01-13T12:55:03.381Z,6.06
2019-01-13T13:00:03.351Z,6.13
2019-01-13T13:05:03.349Z,6.19
2019-01-13T13:10:03.355Z,6.19
2019-01-13T13:15:03.335Z,6.25
2019-01-13T13:20:03.355Z,6.25
2019-01-13T13:25:03.326Z,6.38
2019-01-13T13:30:03.333Z,6.44
2019-01-13T13:35:03.390Z,6.44
2019-01-13T13:40:03.330Z,6.5
2019-01-13T13:45:03.366Z,6.56
2019-01-13T13:50:03.365Z,6.63
2019-01-13T13:55:03.333Z,6.56
2019-01-13T14:00:03.378Z,6.56
2019-01-13T14:05:03.372Z,6.5
2019-01-13T14:10:03.353Z,6.5
2019-01-13T14:15:03.318Z,6.5
2019-01-13T14:20:03.382Z,6.56
2019-01-13T14:25:03.362Z,6.69
2019-01-13T14:30:03.357Z,6.75
2019-01-13T14:35:03.397Z,6.81
2019-01-13T14:40:03.361Z,6.81
2019-01-13T14:45:03.422Z,6.88
2019-01-13T14:50:03.365Z,6.88
2019-01-13T14:55:03.377Z,6.88
2019-01-13T15:00:03.370Z,6.88
2019-01-13T15:05:03.425Z,6.88
2019-01-13T15:10:03.370Z,6.94
2019-01-13T15:15:03.429Z,6.94
2019-01-13T15:20:03.369Z,6.94
2019-01-13T15:25:03.406Z,6.94
2019-01-13T15:30:03.372Z,7
2019-01-13T15:35:03.398Z,7.06
2019-01-13T15:40:03.384Z,7.25
2019-01-13T15:45:03.384Z,7.19
2019-01-13T15:50:03.378Z,7.19
2019-01-13T15:55:03.378Z,7.19
2019-01-13T16:00:03.376Z,7.13
2019-01-13T16:05:03.373Z,7.06
2019-01-13T16:10:03.382Z,7.13
2019-01-13T16:15:03.388Z,7.13
2019-01-13T16:20:03.393Z,7.13
2019-01-13T16:25:03.386Z,7.19
2019-01-13T16:30:03.394Z,7.19
2019-01-13T16:35:03.409Z,7.19
2019-01-13T16:40:03.391Z,7.19
2019-01-13T16:45:03.434Z,7.19
2019-01-13T16:50:03.387Z,7.19
2019-01-13T16:55:03.442Z,7.19
2019-01-13T17:00:03.389Z,7.25
2019-01-13T17:05:03.412Z,7.31
2019-01-13T17:10:03.419Z,7.38
2019-01-13T17:15:03.380Z,7.44
2019-01-13T17:20:03.391Z,7.44
2019-01-13T17:25:03.414Z,7.44
2019-01-13T17:30:03.472Z,7.44
2019-01-13T17:35:03.422Z,7.5
2019-01-13T17:40:03.429Z,7.5
2019-01-13T17:45:03.404Z,7.56
2019-01-13T17:50:04.620Z,7.56
2019-01-13T17:55:03.405Z,7.56
2019-01-13T18:00:03.405Z,7.56
2019-01-13T18:05:03.403Z,7.56
2019-01-13T18:10:03.443Z,7.56
2019-01-13T18:15:03.418Z,7.63
2019-01-13T18:20:03.416Z,7.69
2019-01-13T18:25:03.411Z,7.75
2019-01-13T18:30:03.447Z,7.81
2019-01-13T18:35:03.417Z,7.88
2019-01-13T18:40:03.479Z,7.88
2019-01-13T18:45:03.425Z,7.94
2019-01-13T18:50:03.419Z,7.94
2019-01-13T18:55:03.506Z,8.06
2019-01-13T19:00:03.454Z,8
2019-01-13T19:05:03.428Z,7.94
2019-01-13T19:10:03.480Z,7.88
2019-01-13T19:15:03.438Z,7.44
2019-01-13T19:20:03.427Z,7.19
2019-01-13T19:25:03.424Z,6.88
2019-01-13T19:30:03.457Z,6.75
2019-01-13T19:35:04.583Z,6.63
2019-01-13T19:40:08.431Z,6.5
2019-01-13T19:45:03.626Z,6.38
2019-01-13T19:50:03.445Z,6.25
2019-01-13T19:55:03.463Z,6.13
2019-01-13T20:00:03.441Z,6
2019-01-13T20:05:03.445Z,5.88
2019-01-13T20:10:03.442Z,5.94
2019-01-13T20:15:03.447Z,5.94
2019-01-13T20:20:03.445Z,5.88
2019-01-13T20:25:03.442Z,5.94
2019-01-13T20:30:03.443Z,6
2019-01-13T20:35:03.474Z,6.06
2019-01-13T20:40:03.466Z,6.06
2019-01-13T20:45:03.497Z,6.13
2019-01-13T20:50:03.453Z,6.13
2019-01-13T20:55:03.497Z,6.31
2019-01-13T21:00:03.449Z,6.44
2019-01-13T21:05:03.461Z,6.56
2019-01-13T21:10:03.489Z,6.63
2019-01-13T21:15:03.466Z,6.56
2019-01-13T21:20:03.458Z,6.31
2019-01-13T21:25:03.482Z,6.06
2019-01-13T21:30:03.511Z,6.13
2019-01-13T21:35:03.452Z,6
2019-01-13T21:40:03.482Z,6
2019-01-13T21:45:03.464Z,6
2019-01-13T21:50:03.573Z,6
2019-01-13T21:55:03.507Z,6.06
2019-01-13T22:00:03.467Z,6.06
2019-01-13T22:05:03.462Z,6.13
2019-01-13T22:10:03.519Z,6.06
2019-01-13T22:15:03.473Z,6.25
2019-01-13T22:20:03.480Z,6.31
2019-01-13T22:25:03.535Z,6.25
2019-01-13T22:30:03.487Z,6.25
2019-01-13T22:35:03.471Z,6.31
2019-01-13T22:40:03.504Z,6.38
2019-01-13T22:45:03.482Z,6.44
2019-01-13T22:50:03.474Z,6.5
2019-01-13T22:55:03.496Z,6.63
2019-01-13T23:00:03.488Z,6.69
2019-01-13T23:05:03.487Z,6.75
2019-01-13T23:10:03.482Z,6.81
2019-01-13T23:15:03.522Z,6.75
2019-01-13T23:20:03.494Z,6.63
2019-01-13T23:25:03.482Z,6.44
2019-01-13T23:30:03.523Z,6.38
2019-01-13T23:35:03.493Z,6.31
2019-01-13T23:40:03.496Z,6.31
2019-01-13T23:45:03.496Z,6.38
2019-01-13T23:50:03.492Z,6.38
2019-01-13T23:55:03.498Z,6.31
